createdAt,value
2023-04-19T00:02:54.443Z,2.60
2023-04-19T00:05:41.842Z,2.30
2023-04-19T00:08:28.548Z,2.90
2023-04-19T00:11:15.361Z,2.70
2023-04-19T00:14:02.381Z,2.70
2023-04-19T00:16:49.350Z,2.40
2023-04-19T00:19:36.208Z,2.50
2023-04-19T00:22:23.114Z,2.40
2023-04-19T00:25:10.125Z,2.50
2023-04-19T00:27:57.045Z,2.60
2023-04-19T00:30:43.808Z,2.70
2023-04-19T00:33:31.051Z,2.30
2023-04-19T00:36:17.790Z,2.20
2023-04-19T00:39:08.094Z,2.10
2023-04-19T00:41:57.860Z,2.70
2023-04-19T00:44:44.990Z,2.50
2023-04-19T00:47:32.091Z,2.30
2023-04-19T00:50:19.417Z,2.60
2023-04-19T00:53:08.077Z,2.50
2023-04-19T00:56:00.720Z,2.40
2023-04-19T00:58:48.832Z,2.30
2023-04-19T01:01:35.715Z,2.70
2023-04-19T01:04:23.180Z,2.60
2023-04-19T01:07:11.152Z,2.20
2023-04-19T01:09:58.368Z,2.40
2023-04-19T01:12:45.282Z,2.30
2023-04-19T01:15:32.441Z,2.60
2023-04-19T01:18:19.724Z,2.30
2023-04-19T01:21:07.449Z,2.80
2023-04-19T01:23:54.166Z,2.40
2023-04-19T01:26:42.312Z,2.60
2023-04-19T01:29:29.452Z,2.10
2023-04-19T01:32:17.578Z,2.40
2023-04-19T01:35:06.323Z,2.60
2023-04-19T01:37:56.518Z,2.60
2023-04-19T01:40:44.242Z,2.20
2023-04-19T01:43:31.167Z,2.00
2023-04-19T01:46:18.053Z,2.20
2023-04-19T01:49:05.412Z,2.30
2023-04-19T01:51:52.709Z,2.30
2023-04-19T01:54:40.405Z,2.20
2023-04-19T01:57:27.296Z,2.20
2023-04-19T02:00:15.480Z,2.40
2023-04-19T02:03:02.224Z,2.60
2023-04-19T02:05:49.539Z,2.40
2023-04-19T02:08:36.455Z,2.40
2023-04-19T02:11:24.968Z,2.30
2023-04-19T02:14:11.919Z,2.20
2023-04-19T02:16:59.035Z,2.20
2023-04-19T02:19:45.951Z,2.20
2023-04-19T02:22:33.071Z,2.30
2023-04-19T02:25:20.295Z,2.10
2023-04-19T02:28:07.506Z,2.40
2023-04-19T02:30:54.530Z,2.50
2023-04-19T02:33:41.746Z,2.40
2023-04-19T02:36:28.867Z,2.10
2023-04-19T02:39:17.012Z,2.30
2023-04-19T02:42:04.537Z,2.20
2023-04-19T02:44:52.826Z,2.50
2023-04-19T02:47:43.827Z,2.20
2023-04-19T02:50:32.133Z,2.60
2023-04-19T02:53:19.043Z,2.70
2023-04-19T02:56:08.111Z,2.30
2023-04-19T02:58:55.256Z,2.20
2023-04-19T03:01:42.168Z,2.20
2023-04-19T03:04:29.565Z,2.30
2023-04-19T03:07:16.579Z,2.00
2023-04-19T03:10:03.706Z,2.40
2023-04-19T03:12:51.330Z,2.10
2023-04-19T03:15:38.989Z,2.40
2023-04-19T03:18:27.181Z,2.30
2023-04-19T03:21:14.931Z,2.30
2023-04-19T03:24:09.328Z,2.30
2023-04-19T03:26:58.496Z,2.50
2023-04-19T03:29:49.007Z,2.40
2023-04-19T03:32:36.444Z,2.40
2023-04-19T03:35:26.407Z,2.40
2023-04-19T03:38:14.555Z,2.60
2023-04-19T03:41:02.787Z,2.30
2023-04-19T03:43:53.401Z,2.10
2023-04-19T03:46:40.747Z,2.60
2023-04-19T03:49:28.542Z,2.30
2023-04-19T03:52:22.619Z,2.30
2023-04-19T03:55:12.734Z,2.40
2023-04-19T03:58:00.747Z,2.30
2023-04-19T04:01:18.894Z,2.60
2023-04-19T04:04:06.189Z,2.50
2023-04-19T04:06:53.428Z,2.60
2023-04-19T04:09:40.942Z,2.60
2023-04-19T04:12:28.483Z,2.50
2023-04-19T04:15:15.828Z,2.70
2023-04-19T04:18:09.015Z,2.60
2023-04-19T04:20:56.971Z,2.40
2023-04-19T04:23:48.246Z,2.20
2023-04-19T04:26:41.182Z,2.50
2023-04-19T04:29:49.858Z,2.30
2023-04-19T04:32:38.522Z,2.10
2023-04-19T04:35:26.277Z,3.80
2023-04-19T04:38:24.540Z,6.10
2023-04-19T04:41:13.250Z,5.50
2023-04-19T04:46:51.175Z,6.40
2023-04-19T04:49:43.544Z,6.30
2023-04-19T04:52:30.420Z,6.20
2023-04-19T04:55:23.892Z,6.80
2023-04-19T04:58:11.108Z,6.40
2023-04-19T05:01:27.312Z,5.80
2023-04-19T05:04:15.139Z,5.90
2023-04-19T05:07:03.993Z,5.50
2023-04-19T05:09:51.599Z,5.70
2023-04-19T05:12:42.718Z,5.40
2023-04-19T05:15:29.838Z,5.40
2023-04-19T05:18:17.314Z,5.80
2023-04-19T05:21:04.653Z,5.60
2023-04-19T05:23:53.537Z,5.10
2023-04-19T05:26:41.108Z,5.20
2023-04-19T05:29:28.338Z,4.80
2023-04-19T05:32:15.958Z,5.10
2023-04-19T05:35:08.957Z,5.10
2023-04-19T05:37:56.371Z,4.90
2023-04-19T05:40:44.440Z,4.60
2023-04-19T05:43:31.148Z,4.70
2023-04-19T05:46:18.649Z,4.50
2023-04-19T05:49:05.968Z,4.10
2023-04-19T05:52:05.295Z,4.90
2023-04-19T05:55:18.295Z,4.80
2023-04-19T05:58:05.460Z,4.70
2023-04-19T06:00:52.510Z,4.50
2023-04-19T06:03:39.993Z,4.20
2023-04-19T06:06:27.549Z,3.90
2023-04-19T06:09:15.249Z,3.60
2023-04-19T06:12:02.077Z,4.70
2023-04-19T06:14:49.366Z,4.20
2023-04-19T06:17:36.568Z,3.90
2023-04-19T06:20:23.690Z,4.20
2023-04-19T06:23:13.044Z,4.00
2023-04-19T06:25:59.854Z,3.80
2023-04-19T06:28:46.724Z,3.40
2023-04-19T06:31:34.087Z,3.60
2023-04-19T06:34:21.348Z,3.60
2023-04-19T06:37:07.913Z,3.60
2023-04-19T06:39:54.627Z,4.00
2023-04-19T06:42:41.176Z,3.30
2023-04-19T06:45:28.100Z,4.00
2023-04-19T06:48:15.014Z,3.70
2023-04-19T06:51:02.013Z,3.60
2023-04-19T06:53:51.009Z,3.20
2023-04-19T06:56:42.319Z,3.70
2023-04-19T06:59:31.722Z,3.10
2023-04-19T07:02:18.622Z,2.70
2023-04-19T07:05:06.091Z,3.30
2023-04-19T07:07:53.200Z,3.20
2023-04-19T07:10:40.019Z,2.80
2023-04-19T07:13:26.794Z,3.30
2023-04-19T07:16:14.944Z,2.90
2023-04-19T07:19:01.850Z,3.10
2023-04-19T07:21:49.387Z,3.00
2023-04-19T07:24:36.615Z,2.70
2023-04-19T07:27:23.415Z,2.60
2023-04-19T07:30:11.309Z,2.80
2023-04-19T07:32:58.517Z,2.80
2023-04-19T07:35:45.694Z,2.60
2023-04-19T07:38:33.256Z,2.30
2023-04-19T07:41:20.944Z,2.70
2023-04-19T07:44:08.068Z,2.50
2023-04-19T07:46:55.250Z,2.80
2023-04-19T07:49:44.671Z,3.20
2023-04-19T07:52:31.883Z,2.20
2023-04-19T07:55:19.102Z,2.70
2023-04-19T07:58:06.726Z,2.60
2023-04-19T08:00:53.879Z,2.40
2023-04-19T08:03:41.746Z,2.40
2023-04-19T08:06:30.724Z,2.30
2023-04-19T08:09:18.058Z,2.80
2023-04-19T08:12:05.709Z,2.40
2023-04-19T08:15:03.835Z,2.20
2023-04-19T08:17:57.978Z,2.10
2023-04-19T08:20:49.587Z,2.20
2023-04-19T08:23:47.411Z,2.30
2023-04-19T08:26:35.697Z,2.60
2023-04-19T08:29:23.277Z,1.90
2023-04-19T08:32:12.268Z,2.20
2023-04-19T08:35:01.279Z,2.30
2023-04-19T08:37:49.560Z,2.30
2023-04-19T08:40:41.837Z,2.20
2023-04-19T08:43:33.476Z,2.20
2023-04-19T08:46:23.786Z,2.30
2023-04-19T08:49:11.506Z,2.30
2023-04-19T08:51:59.434Z,2.30
2023-04-19T08:54:46.861Z,2.60
2023-04-19T08:57:34.917Z,2.10
2023-04-19T09:00:22.012Z,2.70
2023-04-19T09:03:09.726Z,2.10
2023-04-19T09:05:57.332Z,2.40
2023-04-19T09:08:44.804Z,2.20
2023-04-19T09:11:40.751Z,2.20
2023-04-19T09:14:29.070Z,2.50
2023-04-19T09:17:16.584Z,2.60
2023-04-19T09:20:05.529Z,2.00
2023-04-19T09:23:06.306Z,2.10
2023-04-19T09:26:22.321Z,2.50
2023-04-19T09:29:08.291Z,2.20
2023-04-19T09:31:59.770Z,2.20
2023-04-19T09:35:00.059Z,2.00
2023-04-19T09:46:37.170Z,2.30
2023-04-19T09:49:37.631Z,2.50
2023-04-19T09:52:34.154Z,2.30
2023-04-19T09:55:27.927Z,2.70
2023-04-19T09:58:17.190Z,2.10
2023-04-19T10:01:14.039Z,2.50
2023-04-19T10:10:05.055Z,2.40
2023-04-19T10:13:16.024Z,2.20
2023-04-19T10:16:18.029Z,2.40
2023-04-19T10:25:13.435Z,2.90
2023-04-19T10:28:00.690Z,2.50
2023-04-19T10:31:05.401Z,2.30
2023-04-19T10:33:53.498Z,2.30
2023-04-19T10:36:40.600Z,2.60
2023-04-19T10:39:45.550Z,2.20
2023-04-19T10:43:11.164Z,2.40
2023-04-19T10:46:25.693Z,2.10
2023-04-19T10:49:13.799Z,2.00
2023-04-19T10:58:07.279Z,2.50
2023-04-19T11:01:33.693Z,2.30
2023-04-19T11:04:30.020Z,2.40
2023-04-19T11:10:31.518Z,2.60
2023-04-19T11:13:18.690Z,2.30
2023-04-19T11:16:09.191Z,2.10
2023-04-19T11:18:56.476Z,2.10
2023-04-19T11:21:46.445Z,2.20
2023-04-19T11:24:35.444Z,2.60
2023-04-19T11:27:22.537Z,2.10
2023-04-19T11:30:12.428Z,2.20
2023-04-19T11:32:59.947Z,2.20
2023-04-19T11:41:30.608Z,2.30
2023-04-19T11:44:20.597Z,2.20
2023-04-19T11:47:07.933Z,2.20
2023-04-19T11:49:58.998Z,2.10
2023-04-19T11:52:49.828Z,2.50
2023-04-19T11:55:37.377Z,2.70
2023-04-19T11:58:29.839Z,2.40
2023-04-19T12:10:10.490Z,2.30
2023-04-19T12:12:58.287Z,2.00
2023-04-19T12:15:47.106Z,2.30
2023-04-19T12:18:50.004Z,2.20
2023-04-19T12:21:36.710Z,2.80
2023-04-19T12:24:23.451Z,1.90
2023-04-19T12:27:11.623Z,2.10
2023-04-19T12:29:58.922Z,2.30
2023-04-19T12:32:46.245Z,2.00
2023-04-19T12:35:34.211Z,2.30
2023-04-19T12:38:21.578Z,2.10
2023-04-19T12:41:08.399Z,2.30
2023-04-19T12:43:55.833Z,2.00
2023-04-19T12:46:42.764Z,2.40
2023-04-19T12:49:29.666Z,2.10
2023-04-19T12:52:16.555Z,2.20
2023-04-19T12:55:03.370Z,2.10
2023-04-19T12:57:50.468Z,2.60
2023-04-19T13:00:37.206Z,2.20
2023-04-19T13:03:24.283Z,2.00
2023-04-19T13:06:14.924Z,2.30
2023-04-19T13:09:11.432Z,2.20
2023-04-19T13:12:01.662Z,2.00
2023-04-19T13:14:51.737Z,2.30
2023-04-19T13:17:38.904Z,2.00
2023-04-19T13:20:26.364Z,2.00
2023-04-19T13:23:13.184Z,2.30
2023-04-19T13:26:00.426Z,2.50
2023-04-19T13:28:47.850Z,1.90
2023-04-19T13:31:34.988Z,2.10
2023-04-19T13:34:21.981Z,2.00
2023-04-19T13:37:08.886Z,2.30
2023-04-19T13:40:04.280Z,2.10
2023-04-19T13:42:57.868Z,1.90
2023-04-19T13:45:45.723Z,1.90
2023-04-19T13:48:33.049Z,2.20
2023-04-19T13:51:19.860Z,2.00
2023-04-19T13:54:06.731Z,1.90
2023-04-19T13:56:53.671Z,2.10
2023-04-19T13:59:40.482Z,2.00
2023-04-19T14:02:28.704Z,2.50
2023-04-19T14:05:15.958Z,2.60
2023-04-19T14:08:03.787Z,2.40
2023-04-19T14:10:51.058Z,2.40
2023-04-19T14:13:37.807Z,2.80
2023-04-19T14:16:25.606Z,3.20
2023-04-19T14:19:12.463Z,2.60
2023-04-19T14:22:00.402Z,2.90
2023-04-19T14:24:47.622Z,2.40
2023-04-19T14:27:34.953Z,2.70
2023-04-19T14:30:22.162Z,2.40
2023-04-19T14:33:10.834Z,2.60
2023-04-19T14:35:58.142Z,2.60
2023-04-19T14:38:45.150Z,2.50
2023-04-19T14:41:32.069Z,2.70
2023-04-19T14:44:19.189Z,2.80
2023-04-19T14:47:06.137Z,2.60
2023-04-19T14:49:52.914Z,2.80
2023-04-19T14:52:40.042Z,2.60
2023-04-19T14:55:28.061Z,3.00
2023-04-19T14:58:14.882Z,2.40
2023-04-19T15:01:11.337Z,2.70
2023-04-19T15:03:58.112Z,2.50
2023-04-19T15:06:46.989Z,3.00
2023-04-19T15:09:33.815Z,2.90
2023-04-19T15:12:21.233Z,2.90
2023-04-19T15:15:08.852Z,3.20
2023-04-19T15:17:55.878Z,2.50
2023-04-19T15:20:43.101Z,2.90
2023-04-19T15:23:30.203Z,2.70
2023-04-19T15:26:17.239Z,2.90
2023-04-19T15:29:04.566Z,2.30
2023-04-19T15:31:51.405Z,2.30
2023-04-19T15:34:37.970Z,2.30
2023-04-19T15:37:24.882Z,2.80
2023-04-19T15:40:14.483Z,2.70
2023-04-19T15:43:01.157Z,2.50
2023-04-19T15:45:48.132Z,2.80
2023-04-19T15:48:34.996Z,2.60
2023-04-19T15:51:22.538Z,2.40
2023-04-19T15:54:12.012Z,2.80
2023-04-19T15:56:59.121Z,2.50
2023-04-19T15:59:46.326Z,2.70
2023-04-19T16:02:34.127Z,2.60
2023-04-19T16:05:22.289Z,2.40
2023-04-19T16:08:21.219Z,2.30
2023-04-19T16:11:08.219Z,2.70
2023-04-19T16:13:55.652Z,2.20
2023-04-19T16:16:43.129Z,2.30
2023-04-19T16:19:29.786Z,2.30
2023-04-19T16:22:16.609Z,2.20
2023-04-19T16:25:03.391Z,2.20
2023-04-19T16:27:50.426Z,2.40
2023-04-19T16:30:37.753Z,2.70
2023-04-19T16:33:24.649Z,2.40
2023-04-19T16:36:11.887Z,2.30
2023-04-19T16:38:58.681Z,2.50
2023-04-19T16:41:45.678Z,2.70
2023-04-19T16:44:32.945Z,2.30
2023-04-19T16:47:19.741Z,2.40
2023-04-19T16:50:07.062Z,2.20
2023-04-19T16:52:53.970Z,2.30
2023-04-19T16:55:40.989Z,2.30
2023-04-19T16:58:28.212Z,2.20
2023-04-19T17:01:15.246Z,2.30
2023-04-19T17:04:02.514Z,2.10
2023-04-19T17:06:49.462Z,1.90
2023-04-19T17:09:36.508Z,2.00
2023-04-19T17:12:23.410Z,2.40
2023-04-19T17:15:11.149Z,2.60
2023-04-19T17:17:58.180Z,2.00
2023-04-19T17:20:45.259Z,2.10
2023-04-19T17:23:32.289Z,2.20
2023-04-19T17:26:19.494Z,2.30
2023-04-19T17:29:06.636Z,2.20
2023-04-19T17:31:54.022Z,2.30
2023-04-19T17:34:40.853Z,2.10
2023-04-19T17:37:27.768Z,2.10
2023-04-19T17:40:15.192Z,2.20
2023-04-19T17:43:02.307Z,2.40
2023-04-19T17:45:49.521Z,2.00
2023-04-19T17:48:36.236Z,1.90
2023-04-19T17:51:23.254Z,2.00
2023-04-19T17:54:10.682Z,2.20
2023-04-19T17:56:59.528Z,2.00
2023-04-19T17:59:46.352Z,2.10
2023-04-19T18:02:34.750Z,2.10
2023-04-19T18:05:22.445Z,2.80
2023-04-19T18:08:10.271Z,3.60
2023-04-19T18:10:57.035Z,3.10
2023-04-19T18:13:46.671Z,2.70
2023-04-19T18:16:35.661Z,3.20
2023-04-19T18:19:24.167Z,3.10
2023-04-19T18:22:11.090Z,3.20
2023-04-19T18:24:57.798Z,3.20
2023-04-19T18:27:45.339Z,3.10
2023-04-19T18:30:32.428Z,2.90
2023-04-19T18:33:19.320Z,3.30
2023-04-19T18:36:06.371Z,2.90
2023-04-19T18:38:53.785Z,3.10
2023-04-19T18:41:41.127Z,2.70
2023-04-19T18:44:49.478Z,3.00
2023-04-19T18:47:35.527Z,2.80
2023-04-19T18:50:22.339Z,2.60
2023-04-19T18:53:09.343Z,2.40
2023-04-19T18:55:59.775Z,2.50
2023-04-19T18:58:46.867Z,2.80
2023-04-19T19:01:34.016Z,2.60
2023-04-19T19:04:37.378Z,2.70
2023-04-19T19:10:22.400Z,2.80
2023-04-19T19:18:58.482Z,3.80
2023-04-19T19:21:47.538Z,4.50
2023-04-19T19:24:37.681Z,4.70
2023-04-19T19:27:24.803Z,5.00
2023-04-19T19:30:12.280Z,5.80
2023-04-19T19:32:59.953Z,6.10
2023-04-19T19:35:46.924Z,4.80
2023-04-19T19:38:37.620Z,5.00
2023-04-19T19:41:55.254Z,4.80
2023-04-19T19:44:31.904Z,4.80
2023-04-19T19:47:18.791Z,4.00
2023-04-19T19:52:57.138Z,4.80
2023-04-19T19:55:43.885Z,4.40
2023-04-19T20:01:22.742Z,4.40
2023-04-19T20:04:10.499Z,4.30
2023-04-19T20:07:28.631Z,4.20
2023-04-19T20:10:10.754Z,4.10
2023-04-19T20:12:58.591Z,4.30
2023-04-19T20:15:47.389Z,3.90
2023-04-19T20:18:35.101Z,4.30
2023-04-19T20:21:22.077Z,4.10
2023-04-19T20:24:09.160Z,4.00
2023-04-19T20:26:55.865Z,4.30
2023-04-19T20:29:42.997Z,4.30
2023-04-19T20:32:30.093Z,4.10
2023-04-19T20:35:17.427Z,4.20
2023-04-19T20:38:04.362Z,4.50
2023-04-19T20:40:51.255Z,4.30
2023-04-19T20:43:39.076Z,4.10
2023-04-19T20:46:26.243Z,4.10
2023-04-19T20:49:13.334Z,4.10
2023-04-19T20:52:00.460Z,4.00
2023-04-19T20:54:47.802Z,3.80
2023-04-19T20:57:34.932Z,3.50
2023-04-19T21:00:21.602Z,3.50
2023-04-19T21:03:08.929Z,4.20
2023-04-19T21:05:55.727Z,3.70
2023-04-19T21:08:42.656Z,3.70
2023-04-19T21:11:29.760Z,4.00
2023-04-19T21:14:16.878Z,3.90
2023-04-19T21:17:04.101Z,3.50
2023-04-19T21:19:51.091Z,3.70
2023-04-19T21:22:42.783Z,3.20
2023-04-19T21:25:29.664Z,3.70
2023-04-19T21:28:16.478Z,3.10
2023-04-19T21:31:03.574Z,3.70
2023-04-19T21:33:50.195Z,3.70
2023-04-19T21:36:37.420Z,3.70
2023-04-19T21:39:24.332Z,3.60
2023-04-19T21:42:11.435Z,3.80
2023-04-19T21:44:58.312Z,3.60
2023-04-19T21:47:46.029Z,3.40
2023-04-19T21:50:33.419Z,3.60
2023-04-19T21:53:21.248Z,3.70
2023-04-19T21:56:08.780Z,4.00
2023-04-19T21:58:55.702Z,3.90
2023-04-19T22:01:42.652Z,3.30
2023-04-19T22:04:31.218Z,3.60
2023-04-19T22:07:18.903Z,3.30
2023-04-19T22:10:07.215Z,3.30
2023-04-19T22:12:58.764Z,3.20
2023-04-19T22:15:46.191Z,3.90
2023-04-19T22:18:34.717Z,3.80
2023-04-19T22:21:21.873Z,3.80
2023-04-19T22:24:09.490Z,3.30
2023-04-19T22:26:57.475Z,3.80
2023-04-19T22:29:44.434Z,3.20
2023-04-19T22:32:31.599Z,3.40
2023-04-19T22:35:19.587Z,3.20
2023-04-19T22:38:08.357Z,3.30
2023-04-19T22:40:54.960Z,3.20
2023-04-19T22:43:41.975Z,3.10
2023-04-19T22:46:29.125Z,3.10
2023-04-19T22:49:16.443Z,3.80
2023-04-19T22:52:04.253Z,3.50
2023-04-19T22:54:51.466Z,3.20
2023-04-19T22:57:38.388Z,3.40
2023-04-19T23:00:26.642Z,3.50
2023-04-19T23:03:13.853Z,3.00
2023-04-19T23:06:03.498Z,3.30
2023-04-19T23:08:51.492Z,2.80
2023-04-19T23:11:39.279Z,3.10
2023-04-19T23:14:26.029Z,3.10
2023-04-19T23:17:14.677Z,3.10
2023-04-19T23:20:01.480Z,3.10
2023-04-19T23:22:48.495Z,2.90
2023-04-19T23:25:35.913Z,3.20
2023-04-19T23:28:22.935Z,2.70
2023-04-19T23:31:09.954Z,3.00
2023-04-19T23:33:56.754Z,2.90
2023-04-19T23:36:43.704Z,3.10
2023-04-19T23:39:30.692Z,2.90
2023-04-19T23:42:17.408Z,3.20
2023-04-19T23:45:06.056Z,2.90
2023-04-19T23:47:53.145Z,3.10
2023-04-19T23:50:40.293Z,3.10
2023-04-19T23:53:27.314Z,2.90
2023-04-19T23:56:14.116Z,3.10
2023-04-19T23:59:01.036Z,2.70
